sensor_id;sensor_type;location;lat;lon;timestamp;temperature;humidity
33095;DHT22;19459;53.044;8.910;2022-10-16T00:01:28;13.50;99.90
33095;DHT22;19459;53.044;8.910;2022-10-16T00:03:56;13.50;99.90
33095;DHT22;19459;53.044;8.910;2022-10-16T00:06:23;13.50;99.90
33095;DHT22;19459;53.044;8.910;2022-10-16T00:08:50;13.50;99.90
33095;DHT22;19459;53.044;8.910;2022-10-16T00:11:37;13.40;99.90
33095;DHT22;19459;53.044;8.910;2022-10-16T00:14:08;13.40;99.90
33095;DHT22;19459;53.044;8.910;2022-10-16T00:16:36;13.50;99.90
33095;DHT22;19459;53.044;8.910;2022-10-16T00:19:03;13.50;99.90
33095;DHT22;19459;53.044;8.910;2022-10-16T00:21:30;13.40;99.90
33095;DHT22;19459;53.044;8.910;2022-10-16T00:24:02;13.40;99.90
33095;DHT22;19459;53.044;8.910;2022-10-16T00:26:31;13.40;99.90
33095;DHT22;19459;53.044;8.910;2022-10-16T00:29:01;13.30;99.90
33095;DHT22;19459;53.044;8.910;2022-10-16T00:31:28;13.30;99.90
33095;DHT22;19459;53.044;8.910;2022-10-16T00:33:55;13.20;99.90
33095;DHT22;19459;53.044;8.910;2022-10-16T00:36:23;13.20;99.90
33095;DHT22;19459;53.044;8.910;2022-10-16T00:38:51;13.20;99.90
33095;DHT22;19459;53.044;8.910;2022-10-16T00:41:21;13.20;99.90
33095;DHT22;19459;53.044;8.910;2022-10-16T00:46:44;13.20;99.90
33095;DHT22;19459;53.044;8.910;2022-10-16T00:51:40;13.10;99.90
33095;DHT22;19459;53.044;8.910;2022-10-16T00:56:49;13.10;99.90
33095;DHT22;19459;53.044;8.910;2022-10-16T00:59:24;13.10;99.90
33095;DHT22;19459;53.044;8.910;2022-10-16T01:01:53;13.10;99.90
33095;DHT22;19459;53.044;8.910;2022-10-16T01:04:19;13.10;99.90
33095;DHT22;19459;53.044;8.910;2022-10-16T01:13:17;13.00;99.90
33095;DHT22;19459;53.044;8.910;2022-10-16T01:21:04;12.90;99.90
33095;DHT22;19459;53.044;8.910;2022-10-16T01:26:36;12.90;99.90
33095;DHT22;19459;53.044;8.910;2022-10-16T01:29:52;13.00;99.90
33095;DHT22;19459;53.044;8.910;2022-10-16T01:35:27;12.90;99.90
33095;DHT22;19459;53.044;8.910;2022-10-16T01:38:17;12.90;99.90
33095;DHT22;19459;53.044;8.910;2022-10-16T01:40:59;12.90;99.90
33095;DHT22;19459;53.044;8.910;2022-10-16T01:43:33;12.90;99.90
33095;DHT22;19459;53.044;8.910;2022-10-16T01:46:01;12.90;99.90
33095;DHT22;19459;53.044;8.910;2022-10-16T01:48:29;12.90;99.90
33095;DHT22;19459;53.044;8.910;2022-10-16T01:51:01;12.90;99.90
33095;DHT22;19459;53.044;8.910;2022-10-16T01:53:31;12.90;99.90
33095;DHT22;19459;53.044;8.910;2022-10-16T01:55:58;12.80;99.90
33095;DHT22;19459;53.044;8.910;2022-10-16T01:58:25;12.80;99.90
33095;DHT22;19459;53.044;8.910;2022-10-16T02:00:54;12.80;99.90
33095;DHT22;19459;53.044;8.910;2022-10-16T02:03:20;12.80;99.90
33095;DHT22;19459;53.044;8.910;2022-10-16T02:05:50;12.70;99.90
33095;DHT22;19459;53.044;8.910;2022-10-16T02:08:19;12.70;99.90
33095;DHT22;19459;53.044;8.910;2022-10-16T02:10:46;12.70;99.90
33095;DHT22;19459;53.044;8.910;2022-10-16T02:13:17;12.70;99.90
33095;DHT22;19459;53.044;8.910;2022-10-16T02:15:47;12.70;99.90
33095;DHT22;19459;53.044;8.910;2022-10-16T02:18:13;12.70;99.90
33095;DHT22;19459;53.044;8.910;2022-10-16T02:20:51;12.70;99.90
33095;DHT22;19459;53.044;8.910;2022-10-16T02:23:24;12.70;99.90
33095;DHT22;19459;53.044;8.910;2022-10-16T02:25:59;12.60;99.90
33095;DHT22;19459;53.044;8.910;2022-10-16T02:28:52;12.60;99.90
33095;DHT22;19459;53.044;8.910;2022-10-16T02:31:26;12.60;99.90
33095;DHT22;19459;53.044;8.910;2022-10-16T02:33:56;12.60;99.90
33095;DHT22;19459;53.044;8.910;2022-10-16T02:36:23;12.60;99.90
33095;DHT22;19459;53.044;8.910;2022-10-16T02:38:50;12.50;99.90
33095;DHT22;19459;53.044;8.910;2022-10-16T02:41:17;12.50;99.90
33095;DHT22;19459;53.044;8.910;2022-10-16T02:43:43;12.40;99.90
33095;DHT22;19459;53.044;8.910;2022-10-16T02:46:09;12.40;99.90
33095;DHT22;19459;53.044;8.910;2022-10-16T02:48:35;12.30;99.90
33095;DHT22;19459;53.044;8.910;2022-10-16T02:51:01;12.30;99.90
33095;DHT22;19459;53.044;8.910;2022-10-16T02:53:26;12.20;99.90
33095;DHT22;19459;53.044;8.910;2022-10-16T02:55:52;12.20;99.90
33095;DHT22;19459;53.044;8.910;2022-10-16T02:58:18;12.20;99.90
33095;DHT22;19459;53.044;8.910;2022-10-16T03:00:44;12.10;99.90
33095;DHT22;19459;53.044;8.910;2022-10-16T03:03:09;12.20;99.90
33095;DHT22;19459;53.044;8.910;2022-10-16T03:05:35;12.20;99.90
33095;DHT22;19459;53.044;8.910;2022-10-16T03:08:01;12.10;99.90
33095;DHT22;19459;53.044;8.910;2022-10-16T03:10:27;12.10;99.90
33095;DHT22;19459;53.044;8.910;2022-10-16T03:12:53;12.10;99.90
33095;DHT22;19459;53.044;8.910;2022-10-16T03:15:18;12.10;99.90
33095;DHT22;19459;53.044;8.910;2022-10-16T03:17:44;12.10;99.90
33095;DHT22;19459;53.044;8.910;2022-10-16T03:20:10;12.10;99.90
33095;DHT22;19459;53.044;8.910;2022-10-16T03:22:36;12.10;99.90
33095;DHT22;19459;53.044;8.910;2022-10-16T03:25:02;12.10;99.90
33095;DHT22;19459;53.044;8.910;2022-10-16T03:27:28;12.10;99.90
33095;DHT22;19459;53.044;8.910;2022-10-16T03:29:54;12.20;99.90
33095;DHT22;19459;53.044;8.910;2022-10-16T03:32:19;12.20;99.90
33095;DHT22;19459;53.044;8.910;2022-10-16T03:34:45;12.20;99.90
33095;DHT22;19459;53.044;8.910;2022-10-16T03:37:11;12.30;99.90
33095;DHT22;19459;53.044;8.910;2022-10-16T03:39:37;12.40;99.90
33095;DHT22;19459;53.044;8.910;2022-10-16T03:42:03;12.40;99.90
33095;DHT22;19459;53.044;8.910;2022-10-16T03:44:28;12.50;99.90
33095;DHT22;19459;53.044;8.910;2022-10-16T03:46:54;12.50;99.90
33095;DHT22;19459;53.044;8.910;2022-10-16T03:49:20;12.60;99.90
33095;DHT22;19459;53.044;8.910;2022-10-16T03:51:45;12.50;99.90
33095;DHT22;19459;53.044;8.910;2022-10-16T03:54:11;12.60;99.90
33095;DHT22;19459;53.044;8.910;2022-10-16T03:56:37;12.60;99.90
33095;DHT22;19459;53.044;8.910;2022-10-16T03:59:03;12.60;99.90
33095;DHT22;19459;53.044;8.910;2022-10-16T04:01:29;12.60;99.90
33095;DHT22;19459;53.044;8.910;2022-10-16T04:03:55;12.70;99.90
33095;DHT22;19459;53.044;8.910;2022-10-16T04:06:20;12.70;99.90
33095;DHT22;19459;53.044;8.910;2022-10-16T04:08:46;12.70;99.90
33095;DHT22;19459;53.044;8.910;2022-10-16T04:11:12;12.70;99.90
33095;DHT22;19459;53.044;8.910;2022-10-16T04:13:38;12.80;99.90
33095;DHT22;19459;53.044;8.910;2022-10-16T04:16:03;12.90;99.90
33095;DHT22;19459;53.044;8.910;2022-10-16T04:18:29;12.90;99.90
33095;DHT22;19459;53.044;8.910;2022-10-16T04:20:55;12.90;99.90
33095;DHT22;19459;53.044;8.910;2022-10-16T04:23:21;12.90;99.90
33095;DHT22;19459;53.044;8.910;2022-10-16T04:25:48;13.00;99.90
33095;DHT22;19459;53.044;8.910;2022-10-16T04:28:14;12.90;99.90
33095;DHT22;19459;53.044;8.910;2022-10-16T04:30:40;13.00;99.90
33095;DHT22;19459;53.044;8.910;2022-10-16T04:33:05;13.00;99.90
33095;DHT22;19459;53.044;8.910;2022-10-16T04:35:31;13.10;99.90
33095;DHT22;19459;53.044;8.910;2022-10-16T04:37:58;13.10;99.90
33095;DHT22;19459;53.044;8.910;2022-10-16T04:40:24;13.10;99.90
33095;DHT22;19459;53.044;8.910;2022-10-16T04:42:49;13.10;99.90
33095;DHT22;19459;53.044;8.910;2022-10-16T04:45:15;13.10;99.90
33095;DHT22;19459;53.044;8.910;2022-10-16T04:47:41;13.00;99.90
33095;DHT22;19459;53.044;8.910;2022-10-16T04:50:07;13.00;99.90
33095;DHT22;19459;53.044;8.910;2022-10-16T04:52:33;13.00;99.90
33095;DHT22;19459;53.044;8.910;2022-10-16T04:54:59;13.00;99.90
33095;DHT22;19459;53.044;8.910;2022-10-16T04:57:28;13.00;99.90
33095;DHT22;19459;53.044;8.910;2022-10-16T04:59:54;13.00;99.90
33095;DHT22;19459;53.044;8.910;2022-10-16T05:02:20;12.90;99.90
33095;DHT22;19459;53.044;8.910;2022-10-16T05:04:46;12.90;99.90
33095;DHT22;19459;53.044;8.910;2022-10-16T05:07:12;12.90;99.90
33095;DHT22;19459;53.044;8.910;2022-10-16T05:09:37;12.80;99.90
33095;DHT22;19459;53.044;8.910;2022-10-16T05:12:03;12.80;99.90
33095;DHT22;19459;53.044;8.910;2022-10-16T05:14:29;12.80;99.90
33095;DHT22;19459;53.044;8.910;2022-10-16T05:16:55;12.80;99.90
33095;DHT22;19459;53.044;8.910;2022-10-16T05:19:21;12.70;99.90
33095;DHT22;19459;53.044;8.910;2022-10-16T05:21:47;12.70;99.90
33095;DHT22;19459;53.044;8.910;2022-10-16T05:24:12;12.80;99.90
33095;DHT22;19459;53.044;8.910;2022-10-16T05:26:38;12.70;99.90
33095;DHT22;19459;53.044;8.910;2022-10-16T05:29:04;12.70;99.90
33095;DHT22;19459;53.044;8.910;2022-10-16T05:31:29;12.70;99.90
33095;DHT22;19459;53.044;8.910;2022-10-16T05:33:59;12.80;99.90
33095;DHT22;19459;53.044;8.910;2022-10-16T05:36:25;12.80;99.90
33095;DHT22;19459;53.044;8.910;2022-10-16T05:38:51;12.70;99.90
33095;DHT22;19459;53.044;8.910;2022-10-16T05:41:18;12.70;99.90
33095;DHT22;19459;53.044;8.910;2022-10-16T05:43:47;12.70;99.90
33095;DHT22;19459;53.044;8.910;2022-10-16T05:46:14;12.80;99.90
33095;DHT22;19459;53.044;8.910;2022-10-16T05:48:40;12.80;99.90
33095;DHT22;19459;53.044;8.910;2022-10-16T05:51:07;12.80;99.90
33095;DHT22;19459;53.044;8.910;2022-10-16T05:53:37;12.80;99.90
33095;DHT22;19459;53.044;8.910;2022-10-16T05:56:04;12.80;99.90
33095;DHT22;19459;53.044;8.910;2022-10-16T05:58:33;12.80;99.90
33095;DHT22;19459;53.044;8.910;2022-10-16T06:01:06;12.80;99.90
33095;DHT22;19459;53.044;8.910;2022-10-16T06:03:34;12.80;99.90
33095;DHT22;19459;53.044;8.910;2022-10-16T06:06:08;12.80;99.90
33095;DHT22;19459;53.044;8.910;2022-10-16T06:08:34;12.70;99.90
33095;DHT22;19459;53.044;8.910;2022-10-16T06:11:06;12.80;99.90
33095;DHT22;19459;53.044;8.910;2022-10-16T06:13:33;12.80;99.90
33095;DHT22;19459;53.044;8.910;2022-10-16T06:16:01;12.70;99.90
33095;DHT22;19459;53.044;8.910;2022-10-16T06:18:28;12.80;99.90
33095;DHT22;19459;53.044;8.910;2022-10-16T06:20:55;12.80;99.90
33095;DHT22;19459;53.044;8.910;2022-10-16T06:23:21;12.80;99.90
33095;DHT22;19459;53.044;8.910;2022-10-16T06:25:47;12.90;99.90
33095;DHT22;19459;53.044;8.910;2022-10-16T06:28:16;12.90;99.90
33095;DHT22;19459;53.044;8.910;2022-10-16T06:30:42;12.90;99.90
33095;DHT22;19459;53.044;8.910;2022-10-16T06:33:11;13.00;99.90
33095;DHT22;19459;53.044;8.910;2022-10-16T06:35:37;13.00;99.90
33095;DHT22;19459;53.044;8.910;2022-10-16T06:38:03;13.00;99.90
33095;DHT22;19459;53.044;8.910;2022-10-16T06:40:29;13.10;99.90
33095;DHT22;19459;53.044;8.910;2022-10-16T06:42:55;13.00;99.90
33095;DHT22;19459;53.044;8.910;2022-10-16T06:45:20;13.10;99.90
33095;DHT22;19459;53.044;8.910;2022-10-16T06:47:46;13.20;99.90
33095;DHT22;19459;53.044;8.910;2022-10-16T06:50:12;13.20;99.90
33095;DHT22;19459;53.044;8.910;2022-10-16T06:52:38;13.20;99.90
33095;DHT22;19459;53.044;8.910;2022-10-16T06:55:04;13.30;99.90
33095;DHT22;19459;53.044;8.910;2022-10-16T06:57:31;13.30;99.90
33095;DHT22;19459;53.044;8.910;2022-10-16T06:59:56;13.30;99.90
33095;DHT22;19459;53.044;8.910;2022-10-16T07:02:22;13.40;99.90
33095;DHT22;19459;53.044;8.910;2022-10-16T07:04:48;13.40;99.90
33095;DHT22;19459;53.044;8.910;2022-10-16T07:07:14;13.50;99.90
33095;DHT22;19459;53.044;8.910;2022-10-16T07:09:40;13.50;99.90
33095;DHT22;19459;53.044;8.910;2022-10-16T07:12:06;13.60;99.90
33095;DHT22;19459;53.044;8.910;2022-10-16T07:14:31;13.70;99.90
33095;DHT22;19459;53.044;8.910;2022-10-16T07:16:57;13.70;99.90
33095;DHT22;19459;53.044;8.910;2022-10-16T07:19:23;13.70;99.90
33095;DHT22;19459;53.044;8.910;2022-10-16T07:21:49;13.80;99.90
33095;DHT22;19459;53.044;8.910;2022-10-16T07:24:15;13.90;99.90
33095;DHT22;19459;53.044;8.910;2022-10-16T07:26:43;13.90;99.90
33095;DHT22;19459;53.044;8.910;2022-10-16T07:29:19;13.90;99.90
33095;DHT22;19459;53.044;8.910;2022-10-16T07:31:47;13.90;99.90
33095;DHT22;19459;53.044;8.910;2022-10-16T07:34:15;14.00;99.90
33095;DHT22;19459;53.044;8.910;2022-10-16T07:36:41;14.10;99.90
33095;DHT22;19459;53.044;8.910;2022-10-16T07:39:07;14.20;99.90
33095;DHT22;19459;53.044;8.910;2022-10-16T07:41:33;14.30;99.90
33095;DHT22;19459;53.044;8.910;2022-10-16T07:44:02;14.40;99.90
33095;DHT22;19459;53.044;8.910;2022-10-16T07:46:29;14.60;99.90
33095;DHT22;19459;53.044;8.910;2022-10-16T07:48:55;14.70;99.90
33095;DHT22;19459;53.044;8.910;2022-10-16T07:51:23;14.70;99.90
33095;DHT22;19459;53.044;8.910;2022-10-16T07:53:50;14.80;99.90
33095;DHT22;19459;53.044;8.910;2022-10-16T07:56:17;14.70;99.90
33095;DHT22;19459;53.044;8.910;2022-10-16T07:58:44;14.70;99.90
33095;DHT22;19459;53.044;8.910;2022-10-16T08:01:15;14.70;99.90
33095;DHT22;19459;53.044;8.910;2022-10-16T08:03:42;14.70;99.90
33095;DHT22;19459;53.044;8.910;2022-10-16T08:06:12;14.60;99.90
33095;DHT22;19459;53.044;8.910;2022-10-16T08:08:38;14.60;99.90
33095;DHT22;19459;53.044;8.910;2022-10-16T08:11:04;14.70;99.90
33095;DHT22;19459;53.044;8.910;2022-10-16T08:13:30;14.70;99.90
33095;DHT22;19459;53.044;8.910;2022-10-16T08:15:56;14.80;99.90
33095;DHT22;19459;53.044;8.910;2022-10-16T08:18:22;14.90;99.90
33095;DHT22;19459;53.044;8.910;2022-10-16T08:20:58;14.90;99.90
33095;DHT22;19459;53.044;8.910;2022-10-16T08:23:26;14.90;99.90
33095;DHT22;19459;53.044;8.910;2022-10-16T08:25:55;15.00;99.90
33095;DHT22;19459;53.044;8.910;2022-10-16T08:28:23;15.00;99.90
33095;DHT22;19459;53.044;8.910;2022-10-16T08:30:50;15.10;99.90
33095;DHT22;19459;53.044;8.910;2022-10-16T08:33:15;15.10;99.90
33095;DHT22;19459;53.044;8.910;2022-10-16T08:35:41;15.20;99.90
33095;DHT22;19459;53.044;8.910;2022-10-16T08:38:07;15.30;99.90
33095;DHT22;19459;53.044;8.910;2022-10-16T08:40:35;15.20;99.90
33095;DHT22;19459;53.044;8.910;2022-10-16T08:48:58;15.20;99.90
33095;DHT22;19459;53.044;8.910;2022-10-16T08:51:28;15.40;99.90
33095;DHT22;19459;53.044;8.910;2022-10-16T08:53:57;15.30;99.90
33095;DHT22;19459;53.044;8.910;2022-10-16T08:56:25;15.40;99.90
33095;DHT22;19459;53.044;8.910;2022-10-16T08:58:53;15.60;99.90
33095;DHT22;19459;53.044;8.910;2022-10-16T09:01:21;15.60;99.90
33095;DHT22;19459;53.044;8.910;2022-10-16T09:13:09;16.20;99.90
33095;DHT22;19459;53.044;8.910;2022-10-16T09:19:19;16.60;99.90
33095;DHT22;19459;53.044;8.910;2022-10-16T09:21:49;16.80;99.90
33095;DHT22;19459;53.044;8.910;2022-10-16T09:24:17;16.80;99.90
33095;DHT22;19459;53.044;8.910;2022-10-16T09:26:44;16.90;99.90
33095;DHT22;19459;53.044;8.910;2022-10-16T09:29:12;16.90;99.90
33095;DHT22;19459;53.044;8.910;2022-10-16T09:31:39;17.00;99.90
33095;DHT22;19459;53.044;8.910;2022-10-16T09:34:05;17.10;99.90
33095;DHT22;19459;53.044;8.910;2022-10-16T09:36:40;17.40;99.90
33095;DHT22;19459;53.044;8.910;2022-10-16T09:39:11;17.50;99.90
33095;DHT22;19459;53.044;8.910;2022-10-16T09:41:41;17.30;99.90
33095;DHT22;19459;53.044;8.910;2022-10-16T09:44:25;17.40;99.90
33095;DHT22;19459;53.044;8.910;2022-10-16T09:47:14;17.30;99.90
33095;DHT22;19459;53.044;8.910;2022-10-16T09:50:04;17.30;99.90
33095;DHT22;19459;53.044;8.910;2022-10-16T09:52:44;17.20;99.90
33095;DHT22;19459;53.044;8.910;2022-10-16T09:55:17;17.20;99.90
33095;DHT22;19459;53.044;8.910;2022-10-16T10:00:20;17.10;99.90
33095;DHT22;19459;53.044;8.910;2022-10-16T10:02:47;17.20;99.90
33095;DHT22;19459;53.044;8.910;2022-10-16T10:05:31;17.10;99.90
33095;DHT22;19459;53.044;8.910;2022-10-16T10:07:59;17.00;99.90
33095;DHT22;19459;53.044;8.910;2022-10-16T10:10:41;17.40;99.90
33095;DHT22;19459;53.044;8.910;2022-10-16T10:13:24;17.60;99.90
33095;DHT22;19459;53.044;8.910;2022-10-16T10:15:51;18.00;99.90
33095;DHT22;19459;53.044;8.910;2022-10-16T10:18:19;18.10;99.90
33095;DHT22;19459;53.044;8.910;2022-10-16T10:21:03;18.30;99.90
33095;DHT22;19459;53.044;8.910;2022-10-16T10:23:31;18.40;99.90
33095;DHT22;19459;53.044;8.910;2022-10-16T10:28:52;18.80;99.90
33095;DHT22;19459;53.044;8.910;2022-10-16T10:31:29;18.90;99.90
33095;DHT22;19459;53.044;8.910;2022-10-16T10:36:49;19.10;99.90
33095;DHT22;19459;53.044;8.910;2022-10-16T10:39:31;19.30;99.90
33095;DHT22;19459;53.044;8.910;2022-10-16T10:42:20;19.20;99.90
33095;DHT22;19459;53.044;8.910;2022-10-16T10:48:06;19.50;99.90
33095;DHT22;19459;53.044;8.910;2022-10-16T10:50:54;19.00;99.90
33095;DHT22;19459;53.044;8.910;2022-10-16T10:53:56;18.80;99.90
33095;DHT22;19459;53.044;8.910;2022-10-16T10:57:09;19.20;99.90
33095;DHT22;19459;53.044;8.910;2022-10-16T11:02:59;18.40;99.90
33095;DHT22;19459;53.044;8.910;2022-10-16T11:08:19;18.80;99.90
33095;DHT22;19459;53.044;8.910;2022-10-16T11:10:58;19.20;99.90
33095;DHT22;19459;53.044;8.910;2022-10-16T11:13:38;19.30;99.90
33095;DHT22;19459;53.044;8.910;2022-10-16T11:16:18;19.30;99.90
33095;DHT22;19459;53.044;8.910;2022-10-16T11:18:52;19.60;99.90
33095;DHT22;19459;53.044;8.910;2022-10-16T11:21:21;19.80;99.90
33095;DHT22;19459;53.044;8.910;2022-10-16T11:26:28;19.90;99.90
33095;DHT22;19459;53.044;8.910;2022-10-16T11:29:00;20.10;99.90
33095;DHT22;19459;53.044;8.910;2022-10-16T11:31:43;19.60;99.90
33095;DHT22;19459;53.044;8.910;2022-10-16T11:34:40;19.60;99.90
33095;DHT22;19459;53.044;8.910;2022-10-16T11:37:19;19.70;99.90
33095;DHT22;19459;53.044;8.910;2022-10-16T11:39:48;20.20;99.90
33095;DHT22;19459;53.044;8.910;2022-10-16T11:42:40;20.40;99.80
33095;DHT22;19459;53.044;8.910;2022-10-16T11:56:59;21.10;99.70
33095;DHT22;19459;53.044;8.910;2022-10-16T11:59:36;20.70;98.80
33095;DHT22;19459;53.044;8.910;2022-10-16T12:08:17;20.10;99.70
33095;DHT22;19459;53.044;8.910;2022-10-16T12:10:45;20.50;99.60
33095;DHT22;19459;53.044;8.910;2022-10-16T12:13:34;19.90;98.70
33095;DHT22;19459;53.044;8.910;2022-10-16T12:16:21;19.40;99.20
33095;DHT22;19459;53.044;8.910;2022-10-16T12:18:49;19.40;99.90
33095;DHT22;19459;53.044;8.910;2022-10-16T12:21:16;19.50;99.70
33095;DHT22;19459;53.044;8.910;2022-10-16T12:24:02;20.00;99.10
33095;DHT22;19459;53.044;8.910;2022-10-16T12:26:32;20.50;99.00
33095;DHT22;19459;53.044;8.910;2022-10-16T12:31:54;19.70;99.30
33095;DHT22;19459;53.044;8.910;2022-10-16T12:34:28;19.60;99.90
33095;DHT22;19459;53.044;8.910;2022-10-16T12:36:56;19.80;99.90
33095;DHT22;19459;53.044;8.910;2022-10-16T12:39:34;19.90;99.50
33095;DHT22;19459;53.044;8.910;2022-10-16T12:42:19;20.20;99.00
33095;DHT22;19459;53.044;8.910;2022-10-16T12:44:48;20.10;98.30
33095;DHT22;19459;53.044;8.910;2022-10-16T12:47:36;20.10;98.40
33095;DHT22;19459;53.044;8.910;2022-10-16T12:50:43;19.50;99.20
33095;DHT22;19459;53.044;8.910;2022-10-16T12:53:24;19.00;99.70
33095;DHT22;19459;53.044;8.910;2022-10-16T12:56:01;18.80;99.90
33095;DHT22;19459;53.044;8.910;2022-10-16T12:58:51;18.90;99.90
33095;DHT22;19459;53.044;8.910;2022-10-16T13:01:31;18.80;99.90
33095;DHT22;19459;53.044;8.910;2022-10-16T13:12:54;19.30;99.60
33095;DHT22;19459;53.044;8.910;2022-10-16T13:15:27;19.10;99.40
33095;DHT22;19459;53.044;8.910;2022-10-16T13:24:07;19.40;99.50
33095;DHT22;19459;53.044;8.910;2022-10-16T13:29:31;19.10;98.90
33095;DHT22;19459;53.044;8.910;2022-10-16T13:31:58;18.80;99.50
33095;DHT22;19459;53.044;8.910;2022-10-16T13:34:24;18.70;99.50
33095;DHT22;19459;53.044;8.910;2022-10-16T13:36:52;18.60;99.90
33095;DHT22;19459;53.044;8.910;2022-10-16T13:39:28;18.70;99.90
33095;DHT22;19459;53.044;8.910;2022-10-16T13:42:19;18.60;99.90
33095;DHT22;19459;53.044;8.910;2022-10-16T13:44:51;18.40;99.90
33095;DHT22;19459;53.044;8.910;2022-10-16T13:47:21;18.60;99.90
33095;DHT22;19459;53.044;8.910;2022-10-16T13:50:03;18.70;99.90
33095;DHT22;19459;53.044;8.910;2022-10-16T13:52:31;18.90;99.70
33095;DHT22;19459;53.044;8.910;2022-10-16T13:54:58;19.10;99.50
33095;DHT22;19459;53.044;8.910;2022-10-16T13:57:24;19.10;98.90
33095;DHT22;19459;53.044;8.910;2022-10-16T13:59:51;19.10;99.20
33095;DHT22;19459;53.044;8.910;2022-10-16T14:02:28;19.00;99.00
33095;DHT22;19459;53.044;8.910;2022-10-16T14:04:57;18.90;99.40
33095;DHT22;19459;53.044;8.910;2022-10-16T14:07:31;18.70;99.60
33095;DHT22;19459;53.044;8.910;2022-10-16T14:10:07;18.70;99.50
33095;DHT22;19459;53.044;8.910;2022-10-16T14:12:57;18.60;98.80
33095;DHT22;19459;53.044;8.910;2022-10-16T14:15:24;18.60;99.50
33095;DHT22;19459;53.044;8.910;2022-10-16T14:17:51;18.60;99.30
33095;DHT22;19459;53.044;8.910;2022-10-16T14:20:18;18.40;99.60
33095;DHT22;19459;53.044;8.910;2022-10-16T14:22:44;18.50;99.90
33095;DHT22;19459;53.044;8.910;2022-10-16T14:28:21;18.40;99.20
33095;DHT22;19459;53.044;8.910;2022-10-16T14:30:59;18.50;99.90
33095;DHT22;19459;53.044;8.910;2022-10-16T14:38:37;18.80;99.70
33095;DHT22;19459;53.044;8.910;2022-10-16T14:41:04;18.60;99.20
33095;DHT22;19459;53.044;8.910;2022-10-16T14:45:59;18.70;99.30
33095;DHT22;19459;53.044;8.910;2022-10-16T14:48:27;18.70;99.40
33095;DHT22;19459;53.044;8.910;2022-10-16T14:50:53;18.70;99.30
33095;DHT22;19459;53.044;8.910;2022-10-16T14:53:19;18.70;98.90
33095;DHT22;19459;53.044;8.910;2022-10-16T14:55:44;18.60;99.10
33095;DHT22;19459;53.044;8.910;2022-10-16T14:58:21;18.70;99.60
33095;DHT22;19459;53.044;8.910;2022-10-16T15:00:48;18.80;99.70
33095;DHT22;19459;53.044;8.910;2022-10-16T15:03:15;18.70;99.70
33095;DHT22;19459;53.044;8.910;2022-10-16T15:05:41;18.70;99.40
33095;DHT22;19459;53.044;8.910;2022-10-16T15:08:06;18.50;98.30
33095;DHT22;19459;53.044;8.910;2022-10-16T15:10:38;18.40;99.00
33095;DHT22;19459;53.044;8.910;2022-10-16T15:13:06;18.30;98.40
33095;DHT22;19459;53.044;8.910;2022-10-16T15:15:37;18.20;98.30
33095;DHT22;19459;53.044;8.910;2022-10-16T15:18:04;18.20;99.10
33095;DHT22;19459;53.044;8.910;2022-10-16T15:20:33;18.20;98.90
33095;DHT22;19459;53.044;8.910;2022-10-16T15:23:06;18.20;99.60
33095;DHT22;19459;53.044;8.910;2022-10-16T15:28:08;18.10;99.90
33095;DHT22;19459;53.044;8.910;2022-10-16T15:30:34;18.00;99.90
33095;DHT22;19459;53.044;8.910;2022-10-16T15:33:02;18.00;99.90
33095;DHT22;19459;53.044;8.910;2022-10-16T15:35:28;17.90;99.90
33095;DHT22;19459;53.044;8.910;2022-10-16T15:37:54;17.80;99.90
33095;DHT22;19459;53.044;8.910;2022-10-16T15:40:21;17.70;99.90
33095;DHT22;19459;53.044;8.910;2022-10-16T15:42:48;17.60;99.90
33095;DHT22;19459;53.044;8.910;2022-10-16T15:45:15;17.50;99.90
33095;DHT22;19459;53.044;8.910;2022-10-16T15:47:42;17.40;99.90
33095;DHT22;19459;53.044;8.910;2022-10-16T15:50:13;17.30;99.90
33095;DHT22;19459;53.044;8.910;2022-10-16T15:52:40;17.20;99.90
33095;DHT22;19459;53.044;8.910;2022-10-16T15:55:11;17.10;99.90
33095;DHT22;19459;53.044;8.910;2022-10-16T15:57:37;17.00;99.90
33095;DHT22;19459;53.044;8.910;2022-10-16T16:00:07;16.90;99.90
33095;DHT22;19459;53.044;8.910;2022-10-16T16:02:38;16.80;99.90
33095;DHT22;19459;53.044;8.910;2022-10-16T16:05:04;16.70;99.90
33095;DHT22;19459;53.044;8.910;2022-10-16T16:07:34;16.60;99.90
33095;DHT22;19459;53.044;8.910;2022-10-16T16:10:00;16.50;99.90
33095;DHT22;19459;53.044;8.910;2022-10-16T16:12:26;16.30;99.90
33095;DHT22;19459;53.044;8.910;2022-10-16T16:14:52;16.20;99.90
33095;DHT22;19459;53.044;8.910;2022-10-16T16:17:18;16.10;99.90
33095;DHT22;19459;53.044;8.910;2022-10-16T16:19:45;16.00;99.90
33095;DHT22;19459;53.044;8.910;2022-10-16T16:22:11;15.80;99.90
33095;DHT22;19459;53.044;8.910;2022-10-16T16:24:37;15.70;99.90
33095;DHT22;19459;53.044;8.910;2022-10-16T16:27:03;15.60;99.90
33095;DHT22;19459;53.044;8.910;2022-10-16T16:29:29;15.50;99.90
33095;DHT22;19459;53.044;8.910;2022-10-16T16:31:55;15.40;99.90
33095;DHT22;19459;53.044;8.910;2022-10-16T16:34:26;15.30;99.90
33095;DHT22;19459;53.044;8.910;2022-10-16T16:36:54;15.20;99.90
33095;DHT22;19459;53.044;8.910;2022-10-16T16:39:20;15.10;99.90
33095;DHT22;19459;53.044;8.910;2022-10-16T16:41:46;15.00;99.90
33095;DHT22;19459;53.044;8.910;2022-10-16T16:44:12;14.90;99.90
33095;DHT22;19459;53.044;8.910;2022-10-16T16:46:39;14.80;99.90
33095;DHT22;19459;53.044;8.910;2022-10-16T16:49:06;14.70;99.90
33095;DHT22;19459;53.044;8.910;2022-10-16T16:51:33;14.60;99.90
33095;DHT22;19459;53.044;8.910;2022-10-16T16:53:59;14.50;99.90
33095;DHT22;19459;53.044;8.910;2022-10-16T16:56:25;14.40;99.90
33095;DHT22;19459;53.044;8.910;2022-10-16T16:58:54;14.30;99.90
33095;DHT22;19459;53.044;8.910;2022-10-16T17:01:21;14.20;99.90
33095;DHT22;19459;53.044;8.910;2022-10-16T17:03:49;14.10;99.90
33095;DHT22;19459;53.044;8.910;2022-10-16T17:06:18;14.00;99.90
33095;DHT22;19459;53.044;8.910;2022-10-16T17:08:44;13.90;99.90
33095;DHT22;19459;53.044;8.910;2022-10-16T17:11:18;13.80;99.90
33095;DHT22;19459;53.044;8.910;2022-10-16T17:13:46;13.80;99.90
33095;DHT22;19459;53.044;8.910;2022-10-16T17:16:13;13.70;99.90
33095;DHT22;19459;53.044;8.910;2022-10-16T17:18:38;13.60;99.90
33095;DHT22;19459;53.044;8.910;2022-10-16T17:21:07;13.50;99.90
33095;DHT22;19459;53.044;8.910;2022-10-16T17:23:34;13.40;99.90
33095;DHT22;19459;53.044;8.910;2022-10-16T17:26:11;13.40;99.90
33095;DHT22;19459;53.044;8.910;2022-10-16T17:28:38;13.30;99.90
33095;DHT22;19459;53.044;8.910;2022-10-16T17:31:13;13.20;99.90
33095;DHT22;19459;53.044;8.910;2022-10-16T17:33:41;13.20;99.90
33095;DHT22;19459;53.044;8.910;2022-10-16T17:36:07;13.10;99.90
33095;DHT22;19459;53.044;8.910;2022-10-16T17:38:34;13.10;99.90
33095;DHT22;19459;53.044;8.910;2022-10-16T17:41:15;13.00;99.90
33095;DHT22;19459;53.044;8.910;2022-10-16T17:43:42;13.00;99.90